sensor_id;sensor_type;location;lat;lon;timestamp;pressure;altitude;pressure_sealevel;temperature
4421;BMP180;11824;51.178;13.546;2023-02-10T00:01:19;101896.00;;;-3.60
4421;BMP180;11824;51.178;13.546;2023-02-10T00:03:47;101906.00;;;-3.60
4421;BMP180;11824;51.178;13.546;2023-02-10T00:06:16;101908.00;;;-3.60
4421;BMP180;11824;51.178;13.546;2023-02-10T00:08:46;101908.00;;;-3.60
4421;BMP180;11824;51.178;13.546;2023-02-10T00:11:14;101906.00;;;-3.60
4421;BMP180;11824;51.178;13.546;2023-02-10T00:13:43;101903.00;;;-3.60
4421;BMP180;11824;51.178;13.546;2023-02-10T00:16:12;101905.00;;;-3.50
4421;BMP180;11824;51.178;13.546;2023-02-10T00:18:40;101915.00;;;-3.50
4421;BMP180;11824;51.178;13.546;2023-02-10T00:21:09;101909.00;;;-3.50
4421;BMP180;11824;51.178;13.546;2023-02-10T00:23:37;101913.00;;;-3.50
4421;BMP180;11824;51.178;13.546;2023-02-10T00:26:05;101911.00;;;-3.50
4421;BMP180;11824;51.178;13.546;2023-02-10T00:28:33;101916.00;;;-3.50
4421;BMP180;11824;51.178;13.546;2023-02-10T00:31:05;101915.00;;;-3.50
4421;BMP180;11824;51.178;13.546;2023-02-10T00:33:33;101914.00;;;-3.50
4421;BMP180;11824;51.178;13.546;2023-02-10T00:36:03;101907.00;;;-3.50
4421;BMP180;11824;51.178;13.546;2023-02-10T00:38:31;101910.00;;;-3.50
4421;BMP180;11824;51.178;13.546;2023-02-10T00:41:02;101906.00;;;-3.50
4421;BMP180;11824;51.178;13.546;2023-02-10T00:43:30;101906.00;;;-3.50
4421;BMP180;11824;51.178;13.546;2023-02-10T00:45:57;101912.00;;;-3.50
4421;BMP180;11824;51.178;13.546;2023-02-10T00:48:24;101920.00;;;-3.60
4421;BMP180;11824;51.178;13.546;2023-02-10T00:50:52;101929.00;;;-3.60
4421;BMP180;11824;51.178;13.546;2023-02-10T00:53:20;101940.00;;;-3.60
4421;BMP180;11824;51.178;13.546;2023-02-10T00:55:47;101925.00;;;-3.60
4421;BMP180;11824;51.178;13.546;2023-02-10T00:58:15;101926.00;;;-3.60
4421;BMP180;11824;51.178;13.546;2023-02-10T01:00:43;101930.00;;;-3.60
4421;BMP180;11824;51.178;13.546;2023-02-10T01:03:10;101929.00;;;-3.60
4421;BMP180;11824;51.178;13.546;2023-02-10T01:05:37;101932.00;;;-3.60
4421;BMP180;11824;51.178;13.546;2023-02-10T01:08:05;101930.00;;;-3.60
4421;BMP180;11824;51.178;13.546;2023-02-10T01:10:33;101935.00;;;-3.60
4421;BMP180;11824;51.178;13.546;2023-02-10T01:13:01;101934.00;;;-3.70
4421;BMP180;11824;51.178;13.546;2023-02-10T01:15:29;101941.00;;;-3.70
4421;BMP180;11824;51.178;13.546;2023-02-10T01:17:57;101950.00;;;-3.70
4421;BMP180;11824;51.178;13.546;2023-02-10T01:20:25;101944.00;;;-3.70
4421;BMP180;11824;51.178;13.546;2023-02-10T01:22:52;101955.00;;;-3.70
4421;BMP180;11824;51.178;13.546;2023-02-10T01:25:20;101956.00;;;-3.70
4421;BMP180;11824;51.178;13.546;2023-02-10T01:27:48;101950.00;;;-3.70
4421;BMP180;11824;51.178;13.546;2023-02-10T01:30:16;101943.00;;;-3.70
4421;BMP180;11824;51.178;13.546;2023-02-10T01:32:43;101935.00;;;-3.70
4421;BMP180;11824;51.178;13.546;2023-02-10T01:35:10;101938.00;;;-3.70
4421;BMP180;11824;51.178;13.546;2023-02-10T01:37:37;101937.00;;;-3.80
4421;BMP180;11824;51.178;13.546;2023-02-10T01:40:06;101943.00;;;-3.70
4421;BMP180;11824;51.178;13.546;2023-02-10T01:42:34;101932.00;;;-3.70
4421;BMP180;11824;51.178;13.546;2023-02-10T01:45:17;101938.00;;;-3.70
4421;BMP180;11824;51.178;13.546;2023-02-10T01:47:46;101940.00;;;-3.70
4421;BMP180;11824;51.178;13.546;2023-02-10T01:50:16;101951.00;;;-3.70
4421;BMP180;11824;51.178;13.546;2023-02-10T01:52:44;101948.00;;;-3.70
4421;BMP180;11824;51.178;13.546;2023-02-10T01:55:15;101940.00;;;-3.60
4421;BMP180;11824;51.178;13.546;2023-02-10T01:57:44;101936.00;;;-3.60
4421;BMP180;11824;51.178;13.546;2023-02-10T02:00:13;101934.00;;;-3.60
4421;BMP180;11824;51.178;13.546;2023-02-10T02:02:41;101940.00;;;-3.60
4421;BMP180;11824;51.178;13.546;2023-02-10T02:05:29;101944.00;;;-3.50
4421;BMP180;11824;51.178;13.546;2023-02-10T02:08:01;101945.00;;;-3.50
4421;BMP180;11824;51.178;13.546;2023-02-10T02:10:38;101935.00;;;-3.40
4421;BMP180;11824;51.178;13.546;2023-02-10T02:13:15;101945.00;;;-3.30
4421;BMP180;11824;51.178;13.546;2023-02-10T02:15:50;101951.00;;;-3.20
4421;BMP180;11824;51.178;13.546;2023-02-10T02:18:23;101960.00;;;-3.20
4421;BMP180;11824;51.178;13.546;2023-02-10T02:21:15;101955.00;;;-3.00
4421;BMP180;11824;51.178;13.546;2023-02-10T02:27:22;101957.00;;;-2.80
4421;BMP180;11824;51.178;13.546;2023-02-10T02:30:19;101956.00;;;-2.70
4421;BMP180;11824;51.178;13.546;2023-02-10T02:32:54;101945.00;;;-2.60
4421;BMP180;11824;51.178;13.546;2023-02-10T02:35:26;101955.00;;;-2.50
4421;BMP180;11824;51.178;13.546;2023-02-10T02:37:55;101956.00;;;-2.40
4421;BMP180;11824;51.178;13.546;2023-02-10T02:40:22;101952.00;;;-2.30
4421;BMP180;11824;51.178;13.546;2023-02-10T02:42:50;101956.00;;;-2.30
4421;BMP180;11824;51.178;13.546;2023-02-10T02:45:20;101952.00;;;-2.20
4421;BMP180;11824;51.178;13.546;2023-02-10T02:48:02;101951.00;;;-2.10
4421;BMP180;11824;51.178;13.546;2023-02-10T02:50:34;101944.00;;;-2.00
4421;BMP180;11824;51.178;13.546;2023-02-10T02:53:16;101935.00;;;-1.90
4421;BMP180;11824;51.178;13.546;2023-02-10T02:55:58;101948.00;;;-1.80
4421;BMP180;11824;51.178;13.546;2023-02-10T02:58:33;101939.00;;;-1.70
4421;BMP180;11824;51.178;13.546;2023-02-10T03:01:05;101950.00;;;-1.60
4421;BMP180;11824;51.178;13.546;2023-02-10T03:03:37;101936.00;;;-1.50
4421;BMP180;11824;51.178;13.546;2023-02-10T03:06:05;101943.00;;;-1.40
4421;BMP180;11824;51.178;13.546;2023-02-10T03:08:34;101938.00;;;-1.30
4421;BMP180;11824;51.178;13.546;2023-02-10T03:11:02;101946.00;;;-1.20
4421;BMP180;11824;51.178;13.546;2023-02-10T03:13:30;101945.00;;;-1.10
4421;BMP180;11824;51.178;13.546;2023-02-10T03:15:58;101947.00;;;-1.10
4421;BMP180;11824;51.178;13.546;2023-02-10T03:18:26;101945.00;;;-1.00
4421;BMP180;11824;51.178;13.546;2023-02-10T03:20:54;101947.00;;;-0.90
4421;BMP180;11824;51.178;13.546;2023-02-10T03:23:21;101956.00;;;-0.80
4421;BMP180;11824;51.178;13.546;2023-02-10T03:25:48;101969.00;;;-0.80
4421;BMP180;11824;51.178;13.546;2023-02-10T03:28:16;101960.00;;;-0.70
4421;BMP180;11824;51.178;13.546;2023-02-10T03:30:44;101969.00;;;-0.60
4421;BMP180;11824;51.178;13.546;2023-02-10T03:33:14;101972.00;;;-0.60
4421;BMP180;11824;51.178;13.546;2023-02-10T03:35:42;101970.00;;;-0.50
4421;BMP180;11824;51.178;13.546;2023-02-10T03:38:11;101962.00;;;-0.50
4421;BMP180;11824;51.178;13.546;2023-02-10T03:40:39;101962.00;;;-0.40
4421;BMP180;11824;51.178;13.546;2023-02-10T03:43:06;101971.00;;;-0.40
4421;BMP180;11824;51.178;13.546;2023-02-10T03:45:33;101970.00;;;-0.30
4421;BMP180;11824;51.178;13.546;2023-02-10T03:48:01;101981.00;;;-0.30
4421;BMP180;11824;51.178;13.546;2023-02-10T03:50:29;101995.00;;;-0.20
4421;BMP180;11824;51.178;13.546;2023-02-10T03:52:56;101983.00;;;-0.20
4421;BMP180;11824;51.178;13.546;2023-02-10T03:55:24;101990.00;;;-0.20
4421;BMP180;11824;51.178;13.546;2023-02-10T03:57:52;101991.00;;;-0.10
4421;BMP180;11824;51.178;13.546;2023-02-10T04:00:19;101994.00;;;-0.10
4421;BMP180;11824;51.178;13.546;2023-02-10T04:02:47;101999.00;;;-0.10
4421;BMP180;11824;51.178;13.546;2023-02-10T04:05:14;102005.00;;;-0.10
4421;BMP180;11824;51.178;13.546;2023-02-10T04:07:42;102019.00;;;-0.10
4421;BMP180;11824;51.178;13.546;2023-02-10T04:10:09;102011.00;;;0.00
4421;BMP180;11824;51.178;13.546;2023-02-10T04:12:38;102017.00;;;0.00
4421;BMP180;11824;51.178;13.546;2023-02-10T04:15:06;102011.00;;;0.00
4421;BMP180;11824;51.178;13.546;2023-02-10T04:17:34;102007.00;;;0.00
4421;BMP180;11824;51.178;13.546;2023-02-10T04:20:01;102014.00;;;0.00
4421;BMP180;11824;51.178;13.546;2023-02-10T04:22:28;102008.00;;;0.00
4421;BMP180;11824;51.178;13.546;2023-02-10T04:24:56;102007.00;;;0.00
4421;BMP180;11824;51.178;13.546;2023-02-10T04:27:23;102005.00;;;0.00
4421;BMP180;11824;51.178;13.546;2023-02-10T04:29:51;102002.00;;;0.00
4421;BMP180;11824;51.178;13.546;2023-02-10T04:32:18;102011.00;;;0.00
4421;BMP180;11824;51.178;13.546;2023-02-10T04:34:46;102011.00;;;0.00
4421;BMP180;11824;51.178;13.546;2023-02-10T04:37:13;102024.00;;;0.00
4421;BMP180;11824;51.178;13.546;2023-02-10T04:39:40;102037.00;;;0.00
4421;BMP180;11824;51.178;13.546;2023-02-10T04:42:08;102043.00;;;0.00
4421;BMP180;11824;51.178;13.546;2023-02-10T04:44:35;102037.00;;;0.00
4421;BMP180;11824;51.178;13.546;2023-02-10T04:47:03;102038.00;;;0.00
4421;BMP180;11824;51.178;13.546;2023-02-10T04:49:31;102035.00;;;0.00
4421;BMP180;11824;51.178;13.546;2023-02-10T04:51:58;102032.00;;;0.10
4421;BMP180;11824;51.178;13.546;2023-02-10T04:54:25;102038.00;;;0.10
4421;BMP180;11824;51.178;13.546;2023-02-10T04:56:52;102031.00;;;0.10
4421;BMP180;11824;51.178;13.546;2023-02-10T04:59:20;102026.00;;;0.10
4421;BMP180;11824;51.178;13.546;2023-02-10T05:01:47;102020.00;;;0.10
4421;BMP180;11824;51.178;13.546;2023-02-10T05:04:15;102029.00;;;0.10
4421;BMP180;11824;51.178;13.546;2023-02-10T05:06:42;102032.00;;;0.20
4421;BMP180;11824;51.178;13.546;2023-02-10T05:09:09;102032.00;;;0.20
4421;BMP180;11824;51.178;13.546;2023-02-10T05:11:37;102042.00;;;0.20
4421;BMP180;11824;51.178;13.546;2023-02-10T05:14:04;102042.00;;;0.20
4421;BMP180;11824;51.178;13.546;2023-02-10T05:16:31;102035.00;;;0.20
4421;BMP180;11824;51.178;13.546;2023-02-10T05:18:59;102046.00;;;0.20
4421;BMP180;11824;51.178;13.546;2023-02-10T05:21:27;102043.00;;;0.20
4421;BMP180;11824;51.178;13.546;2023-02-10T05:23:56;102051.00;;;0.20
4421;BMP180;11824;51.178;13.546;2023-02-10T05:26:23;102054.00;;;0.30
4421;BMP180;11824;51.178;13.546;2023-02-10T05:28:51;102060.00;;;0.30
4421;BMP180;11824;51.178;13.546;2023-02-10T05:31:18;102058.00;;;0.30
4421;BMP180;11824;51.178;13.546;2023-02-10T05:33:46;102060.00;;;0.30
4421;BMP180;11824;51.178;13.546;2023-02-10T05:36:13;102060.00;;;0.30
4421;BMP180;11824;51.178;13.546;2023-02-10T05:38:41;102065.00;;;0.30
4421;BMP180;11824;51.178;13.546;2023-02-10T05:41:29;102071.00;;;0.40
4421;BMP180;11824;51.178;13.546;2023-02-10T05:43:56;102067.00;;;0.40
4421;BMP180;11824;51.178;13.546;2023-02-10T05:46:23;102066.00;;;0.40
4421;BMP180;11824;51.178;13.546;2023-02-10T05:48:51;102071.00;;;0.40
4421;BMP180;11824;51.178;13.546;2023-02-10T05:51:18;102075.00;;;0.40
4421;BMP180;11824;51.178;13.546;2023-02-10T05:53:46;102076.00;;;0.40
4421;BMP180;11824;51.178;13.546;2023-02-10T05:56:13;102080.00;;;0.40
4421;BMP180;11824;51.178;13.546;2023-02-10T05:58:40;102081.00;;;0.40
4421;BMP180;11824;51.178;13.546;2023-02-10T06:01:09;102080.00;;;0.50
4421;BMP180;11824;51.178;13.546;2023-02-10T06:03:37;102098.00;;;0.50
4421;BMP180;11824;51.178;13.546;2023-02-10T06:06:04;102098.00;;;0.50
4421;BMP180;11824;51.178;13.546;2023-02-10T06:08:32;102095.00;;;0.50
4421;BMP180;11824;51.178;13.546;2023-02-10T06:11:00;102094.00;;;0.50
4421;BMP180;11824;51.178;13.546;2023-02-10T06:13:27;102102.00;;;0.50
4421;BMP180;11824;51.178;13.546;2023-02-10T06:15:54;102094.00;;;0.50
4421;BMP180;11824;51.178;13.546;2023-02-10T06:18:21;102097.00;;;0.50
4421;BMP180;11824;51.178;13.546;2023-02-10T06:20:49;102087.00;;;0.50
4421;BMP180;11824;51.178;13.546;2023-02-10T06:23:18;102082.00;;;0.50
4421;BMP180;11824;51.178;13.546;2023-02-10T06:25:46;102080.00;;;0.60
4421;BMP180;11824;51.178;13.546;2023-02-10T06:28:14;102087.00;;;0.60
4421;BMP180;11824;51.178;13.546;2023-02-10T06:30:42;102087.00;;;0.60
4421;BMP180;11824;51.178;13.546;2023-02-10T06:33:09;102082.00;;;0.60
4421;BMP180;11824;51.178;13.546;2023-02-10T06:35:37;102092.00;;;0.60
4421;BMP180;11824;51.178;13.546;2023-02-10T06:38:04;102099.00;;;0.60
4421;BMP180;11824;51.178;13.546;2023-02-10T06:40:31;102107.00;;;0.60
4421;BMP180;11824;51.178;13.546;2023-02-10T06:42:59;102113.00;;;0.70
4421;BMP180;11824;51.178;13.546;2023-02-10T06:45:28;102109.00;;;0.70
4421;BMP180;11824;51.178;13.546;2023-02-10T06:47:56;102112.00;;;0.70
4421;BMP180;11824;51.178;13.546;2023-02-10T06:50:23;102110.00;;;0.70
4421;BMP180;11824;51.178;13.546;2023-02-10T06:52:50;102131.00;;;0.70
4421;BMP180;11824;51.178;13.546;2023-02-10T06:55:18;102142.00;;;0.80
4421;BMP180;11824;51.178;13.546;2023-02-10T06:57:45;102136.00;;;0.80
4421;BMP180;11824;51.178;13.546;2023-02-10T07:00:15;102137.00;;;0.80
4421;BMP180;11824;51.178;13.546;2023-02-10T07:02:43;102137.00;;;0.80
4421;BMP180;11824;51.178;13.546;2023-02-10T07:05:11;102148.00;;;0.90
4421;BMP180;11824;51.178;13.546;2023-02-10T07:07:39;102139.00;;;0.90
4421;BMP180;11824;51.178;13.546;2023-02-10T07:10:07;102145.00;;;0.90
4421;BMP180;11824;51.178;13.546;2023-02-10T07:12:35;102151.00;;;0.90
4421;BMP180;11824;51.178;13.546;2023-02-10T07:15:02;102150.00;;;1.00
4421;BMP180;11824;51.178;13.546;2023-02-10T07:17:29;102158.00;;;1.00
4421;BMP180;11824;51.178;13.546;2023-02-10T07:19:57;102167.00;;;1.00
4421;BMP180;11824;51.178;13.546;2023-02-10T07:22:25;102166.00;;;1.00
4421;BMP180;11824;51.178;13.546;2023-02-10T07:24:52;102168.00;;;1.10
4421;BMP180;11824;51.178;13.546;2023-02-10T07:27:20;102160.00;;;1.10
4421;BMP180;11824;51.178;13.546;2023-02-10T07:29:47;102152.00;;;1.10
4421;BMP180;11824;51.178;13.546;2023-02-10T07:32:15;102149.00;;;1.20
4421;BMP180;11824;51.178;13.546;2023-02-10T07:34:42;102143.00;;;1.20
4421;BMP180;11824;51.178;13.546;2023-02-10T07:37:10;102151.00;;;1.20
4421;BMP180;11824;51.178;13.546;2023-02-10T07:39:38;102164.00;;;1.30
4421;BMP180;11824;51.178;13.546;2023-02-10T07:42:05;102167.00;;;1.30
4421;BMP180;11824;51.178;13.546;2023-02-10T07:44:32;102168.00;;;1.40
4421;BMP180;11824;51.178;13.546;2023-02-10T07:47:00;102167.00;;;1.40
4421;BMP180;11824;51.178;13.546;2023-02-10T07:49:27;102158.00;;;1.50
4421;BMP180;11824;51.178;13.546;2023-02-10T07:51:55;102157.00;;;1.50
4421;BMP180;11824;51.178;13.546;2023-02-10T07:54:23;102166.00;;;1.50
4421;BMP180;11824;51.178;13.546;2023-02-10T07:56:51;102180.00;;;1.60
4421;BMP180;11824;51.178;13.546;2023-02-10T07:59:18;102191.00;;;1.60
4421;BMP180;11824;51.178;13.546;2023-02-10T08:01:45;102183.00;;;1.60
4421;BMP180;11824;51.178;13.546;2023-02-10T08:04:13;102184.00;;;1.70
4421;BMP180;11824;51.178;13.546;2023-02-10T08:06:41;102182.00;;;1.70
4421;BMP180;11824;51.178;13.546;2023-02-10T08:09:08;102191.00;;;1.70
4421;BMP180;11824;51.178;13.546;2023-02-10T08:11:36;102193.00;;;1.80
4421;BMP180;11824;51.178;13.546;2023-02-10T08:14:04;102190.00;;;1.80
4421;BMP180;11824;51.178;13.546;2023-02-10T08:16:31;102182.00;;;1.80
4421;BMP180;11824;51.178;13.546;2023-02-10T08:18:59;102169.00;;;1.80
4421;BMP180;11824;51.178;13.546;2023-02-10T08:21:26;102164.00;;;1.90
4421;BMP180;11824;51.178;13.546;2023-02-10T08:23:53;102175.00;;;1.90
4421;BMP180;11824;51.178;13.546;2023-02-10T08:26:21;102181.00;;;1.90
4421;BMP180;11824;51.178;13.546;2023-02-10T08:28:50;102188.00;;;2.00
4421;BMP180;11824;51.178;13.546;2023-02-10T08:31:18;102195.00;;;2.00
4421;BMP180;11824;51.178;13.546;2023-02-10T08:33:45;102191.00;;;2.00
4421;BMP180;11824;51.178;13.546;2023-02-10T08:36:16;102201.00;;;2.10
4421;BMP180;11824;51.178;13.546;2023-02-10T08:38:44;102201.00;;;2.10
4421;BMP180;11824;51.178;13.546;2023-02-10T08:41:12;102207.00;;;2.10
4421;BMP180;11824;51.178;13.546;2023-02-10T08:43:39;102212.00;;;2.20
4421;BMP180;11824;51.178;13.546;2023-02-10T08:46:07;102208.00;;;2.20
4421;BMP180;11824;51.178;13.546;2023-02-10T08:48:35;102217.00;;;2.20
4421;BMP180;11824;51.178;13.546;2023-02-10T08:51:06;102222.00;;;2.20
4421;BMP180;11824;51.178;13.546;2023-02-10T08:53:34;102204.00;;;2.20
4421;BMP180;11824;51.178;13.546;2023-02-10T08:56:04;102213.00;;;2.30
4421;BMP180;11824;51.178;13.546;2023-02-10T08:58:31;102223.00;;;2.30
4421;BMP180;11824;51.178;13.546;2023-02-10T09:00:59;102222.00;;;2.30
4421;BMP180;11824;51.178;13.546;2023-02-10T09:03:27;102229.00;;;2.30
4421;BMP180;11824;51.178;13.546;2023-02-10T09:05:55;102226.00;;;2.30
4421;BMP180;11824;51.178;13.546;2023-02-10T09:08:22;102221.00;;;2.40
4421;BMP180;11824;51.178;13.546;2023-02-10T09:10:50;102240.00;;;2.40
4421;BMP180;11824;51.178;13.546;2023-02-10T09:13:17;102224.00;;;2.40
4421;BMP180;11824;51.178;13.546;2023-02-10T09:15:44;102234.00;;;2.40
4421;BMP180;11824;51.178;13.546;2023-02-10T09:18:11;102223.00;;;2.40
4421;BMP180;11824;51.178;13.546;2023-02-10T09:20:39;102234.00;;;2.40
4421;BMP180;11824;51.178;13.546;2023-02-10T09:23:07;102239.00;;;2.50
4421;BMP180;11824;51.178;13.546;2023-02-10T09:25:34;102229.00;;;2.50
4421;BMP180;11824;51.178;13.546;2023-02-10T09:28:01;102232.00;;;2.50
4421;BMP180;11824;51.178;13.546;2023-02-10T09:30:29;102231.00;;;2.50
4421;BMP180;11824;51.178;13.546;2023-02-10T09:32:56;102234.00;;;2.50
4421;BMP180;11824;51.178;13.546;2023-02-10T09:35:23;102232.00;;;2.60
4421;BMP180;11824;51.178;13.546;2023-02-10T09:37:51;102248.00;;;2.60
4421;BMP180;11824;51.178;13.546;2023-02-10T09:40:22;102241.00;;;2.60
4421;BMP180;11824;51.178;13.546;2023-02-10T09:43:11;102237.00;;;2.70
4421;BMP180;11824;51.178;13.546;2023-02-10T09:45:41;102236.00;;;2.70
4421;BMP180;11824;51.178;13.546;2023-02-10T09:48:25;102240.00;;;2.80
4421;BMP180;11824;51.178;13.546;2023-02-10T09:51:02;102234.00;;;2.80
4421;BMP180;11824;51.178;13.546;2023-02-10T09:53:32;102229.00;;;2.80
4421;BMP180;11824;51.178;13.546;2023-02-10T09:56:02;102225.00;;;2.90
4421;BMP180;11824;51.178;13.546;2023-02-10T09:58:33;102234.00;;;2.90
4421;BMP180;11824;51.178;13.546;2023-02-10T10:01:05;102232.00;;;2.90
4421;BMP180;11824;51.178;13.546;2023-02-10T10:03:40;102227.00;;;3.00
4421;BMP180;11824;51.178;13.546;2023-02-10T10:06:15;102224.00;;;3.00
4421;BMP180;11824;51.178;13.546;2023-02-10T10:08:50;102224.00;;;3.00
4421;BMP180;11824;51.178;13.546;2023-02-10T10:11:26;102233.00;;;3.10
4421;BMP180;11824;51.178;13.546;2023-02-10T10:13:55;102233.00;;;3.10
4421;BMP180;11824;51.178;13.546;2023-02-10T10:16:38;102233.00;;;3.10
4421;BMP180;11824;51.178;13.546;2023-02-10T10:19:18;102228.00;;;3.20
4421;BMP180;11824;51.178;13.546;2023-02-10T10:21:57;102239.00;;;3.20
4421;BMP180;11824;51.178;13.546;2023-02-10T10:24:44;102241.00;;;3.30
4421;BMP180;11824;51.178;13.546;2023-02-10T10:27:24;102239.00;;;3.30
4421;BMP180;11824;51.178;13.546;2023-02-10T10:29:58;102236.00;;;3.30
4421;BMP180;11824;51.178;13.546;2023-02-10T10:32:37;102233.00;;;3.30
4421;BMP180;11824;51.178;13.546;2023-02-10T10:35:14;102237.00;;;3.30
4421;BMP180;11824;51.178;13.546;2023-02-10T10:37:42;102238.00;;;3.30
4421;BMP180;11824;51.178;13.546;2023-02-10T10:40:17;102241.00;;;3.40
4421;BMP180;11824;51.178;13.546;2023-02-10T10:42:47;102237.00;;;3.40
4421;BMP180;11824;51.178;13.546;2023-02-10T10:45:18;102247.00;;;3.40
4421;BMP180;11824;51.178;13.546;2023-02-10T10:47:49;102230.00;;;3.40
4421;BMP180;11824;51.178;13.546;2023-02-10T10:50:21;102234.00;;;3.40
4421;BMP180;11824;51.178;13.546;2023-02-10T10:52:50;102231.00;;;3.40
4421;BMP180;11824;51.178;13.546;2023-02-10T10:55:24;102235.00;;;3.40
4421;BMP180;11824;51.178;13.546;2023-02-10T10:57:53;102234.00;;;3.40
4421;BMP180;11824;51.178;13.546;2023-02-10T11:00:23;102247.00;;;3.30
4421;BMP180;11824;51.178;13.546;2023-02-10T11:02:57;102234.00;;;3.30
4421;BMP180;11824;51.178;13.546;2023-02-10T11:05:29;102231.00;;;3.30
4421;BMP180;11824;51.178;13.546;2023-02-10T11:07:57;102226.00;;;3.30
4421;BMP180;11824;51.178;13.546;2023-02-10T11:10:29;102232.00;;;3.30
4421;BMP180;11824;51.178;13.546;2023-02-10T11:12:58;102226.00;;;3.30
4421;BMP180;11824;51.178;13.546;2023-02-10T11:15:31;102229.00;;;3.30
4421;BMP180;11824;51.178;13.546;2023-02-10T11:18:00;102227.00;;;3.30
4421;BMP180;11824;51.178;13.546;2023-02-10T11:20:29;102237.00;;;3.30
4421;BMP180;11824;51.178;13.546;2023-02-10T11:22:59;102232.00;;;3.40
4421;BMP180;11824;51.178;13.546;2023-02-10T11:25:30;102230.00;;;3.40
4421;BMP180;11824;51.178;13.546;2023-02-10T11:27:58;102228.00;;;3.50
4421;BMP180;11824;51.178;13.546;2023-02-10T11:30:28;102226.00;;;3.60
4421;BMP180;11824;51.178;13.546;2023-02-10T11:32:56;102225.00;;;3.70
4421;BMP180;11824;51.178;13.546;2023-02-10T11:35:25;102231.00;;;3.80
4421;BMP180;11824;51.178;13.546;2023-02-10T11:37:54;102226.00;;;3.90
4421;BMP180;11824;51.178;13.546;2023-02-10T11:40:24;102223.00;;;4.10
4421;BMP180;11824;51.178;13.546;2023-02-10T11:42:55;102218.00;;;4.20
4421;BMP180;11824;51.178;13.546;2023-02-10T11:45:25;102223.00;;;4.30
4421;BMP180;11824;51.178;13.546;2023-02-10T11:48:04;102225.00;;;4.40
4421;BMP180;11824;51.178;13.546;2023-02-10T11:50:34;102221.00;;;4.60
4421;BMP180;11824;51.178;13.546;2023-02-10T11:53:03;102229.00;;;4.70
4421;BMP180;11824;51.178;13.546;2023-02-10T11:55:37;102212.00;;;4.80
4421;BMP180;11824;51.178;13.546;2023-02-10T11:58:24;102216.00;;;4.90
4421;BMP180;11824;51.178;13.546;2023-02-10T12:01:17;102210.00;;;5.00
4421;BMP180;11824;51.178;13.546;2023-02-10T12:03:54;102219.00;;;5.00
4421;BMP180;11824;51.178;13.546;2023-02-10T12:06:27;102201.00;;;5.00
4421;BMP180;11824;51.178;13.546;2023-02-10T12:09:10;102198.00;;;5.00
4421;BMP180;11824;51.178;13.546;2023-02-10T12:11:48;102195.00;;;5.10
4421;BMP180;11824;51.178;13.546;2023-02-10T12:14:37;102190.00;;;5.10
4421;BMP180;11824;51.178;13.546;2023-02-10T12:17:18;102194.00;;;5.20
4421;BMP180;11824;51.178;13.546;2023-02-10T12:19:57;102194.00;;;5.20
4421;BMP180;11824;51.178;13.546;2023-02-10T12:22:40;102195.00;;;5.30
4421;BMP180;11824;51.178;13.546;2023-02-10T12:25:15;102199.00;;;5.30
4421;BMP180;11824;51.178;13.546;2023-02-10T12:27:53;102202.00;;;5.40
4421;BMP180;11824;51.178;13.546;2023-02-10T12:30:36;102198.00;;;5.50
4421;BMP180;11824;51.178;13.546;2023-02-10T12:33:23;102195.00;;;5.60
4421;BMP180;11824;51.178;13.546;2023-02-10T12:36:07;102198.00;;;5.60
4421;BMP180;11824;51.178;13.546;2023-02-10T12:38:57;102193.00;;;5.70
4421;BMP180;11824;51.178;13.546;2023-02-10T12:41:35;102191.00;;;5.70
4421;BMP180;11824;51.178;13.546;2023-02-10T12:44:16;102198.00;;;5.80
4421;BMP180;11824;51.178;13.546;2023-02-10T12:46:58;102198.00;;;5.80
4421;BMP180;11824;51.178;13.546;2023-02-10T12:49:34;102186.00;;;5.80
4421;BMP180;11824;51.178;13.546;2023-02-10T12:52:09;102175.00;;;5.80
4421;BMP180;11824;51.178;13.546;2023-02-10T12:54:45;102182.00;;;5.80
4421;BMP180;11824;51.178;13.546;2023-02-10T12:57:17;102176.00;;;5.80
4421;BMP180;11824;51.178;13.546;2023-02-10T12:59:52;102158.00;;;5.80
4421;BMP180;11824;51.178;13.546;2023-02-10T13:02:24;102165.00;;;5.80
4421;BMP180;11824;51.178;13.546;2023-02-10T13:04:56;102155.00;;;5.90
4421;BMP180;11824;51.178;13.546;2023-02-10T13:07:32;102170.00;;;5.90
4421;BMP180;11824;51.178;13.546;2023-02-10T13:10:09;102162.00;;;5.90
4421;BMP180;11824;51.178;13.546;2023-02-10T13:12:45;102167.00;;;5.90
4421;BMP180;11824;51.178;13.546;2023-02-10T13:15:16;102166.00;;;5.90
4421;BMP180;11824;51.178;13.546;2023-02-10T13:17:47;102154.00;;;6.00
4421;BMP180;11824;51.178;13.546;2023-02-10T13:20:34;102160.00;;;6.00
4421;BMP180;11824;51.178;13.546;2023-02-10T13:23:14;102158.00;;;6.00
4421;BMP180;11824;51.178;13.546;2023-02-10T13:25:59;102159.00;;;6.00
4421;BMP180;11824;51.178;13.546;2023-02-10T13:28:36;102156.00;;;6.00
4421;BMP180;11824;51.178;13.546;2023-02-10T13:31:19;102160.00;;;6.00
4421;BMP180;11824;51.178;13.546;2023-02-10T13:33:56;102155.00;;;5.90
4421;BMP180;11824;51.178;13.546;2023-02-10T13:36:28;102156.00;;;5.90
4421;BMP180;11824;51.178;13.546;2023-02-10T13:38:59;102156.00;;;5.90
4421;BMP180;11824;51.178;13.546;2023-02-10T13:41:31;102157.00;;;5.80
4421;BMP180;11824;51.178;13.546;2023-02-10T13:44:23;102150.00;;;5.80
4421;BMP180;11824;51.178;13.546;2023-02-10T13:47:08;102154.00;;;5.80
4421;BMP180;11824;51.178;13.546;2023-02-10T13:49:47;102157.00;;;5.80
4421;BMP180;11824;51.178;13.546;2023-02-10T13:52:18;102155.00;;;5.80
4421;BMP180;11824;51.178;13.546;2023-02-10T13:54:57;102149.00;;;5.80
4421;BMP180;11824;51.178;13.546;2023-02-10T13:57:28;102154.00;;;5.70
4421;BMP180;11824;51.178;13.546;2023-02-10T14:00:17;102148.00;;;5.70
4421;BMP180;11824;51.178;13.546;2023-02-10T14:02:45;102131.00;;;5.70
4421;BMP180;11824;51.178;13.546;2023-02-10T14:05:27;102145.00;;;5.70
4421;BMP180;11824;51.178;13.546;2023-02-10T14:07:55;102132.00;;;5.60
4421;BMP180;11824;51.178;13.546;2023-02-10T14:10:33;102133.00;;;5.60
4421;BMP180;11824;51.178;13.546;2023-02-10T14:13:04;102132.00;;;5.60
4421;BMP180;11824;51.178;13.546;2023-02-10T14:15:34;102130.00;;;5.60
4421;BMP180;11824;51.178;13.546;2023-02-10T14:18:04;102136.00;;;5.50
4421;BMP180;11824;51.178;13.546;2023-02-10T14:20:36;102129.00;;;5.50
4421;BMP180;11824;51.178;13.546;2023-02-10T14:23:06;102128.00;;;5.50
4421;BMP180;11824;51.178;13.546;2023-02-10T14:25:38;102136.00;;;5.40
4421;BMP180;11824;51.178;13.546;2023-02-10T14:28:15;102135.00;;;5.40
4421;BMP180;11824;51.178;13.546;2023-02-10T14:30:46;102143.00;;;5.40